• Join FlightAware (Why Join?)
  • Login
  • US Flag 
02:05PM EDT


 

Airport Tracker/Info


-or-


 

Live Flight TrackerFlight Track Log ✈ DAL3606 ✈ 01-May-2013 ✈ KATL - KIAD

Flight Track Log - Related Links

Times and Time Zones

All times are in EDT time to prevent confusion due to time zone crossing. See the DAL3606 flight status page for this flight to view local times or setup timezone preferences in your user account.

Time Position Orientation Groundspeed Altitude Reporting Facility
EDT Latitude Longitude Course Direction KTS MPH feet Rate Location/Type
08:47AM 33.6333 -84.4000 48° Northeast 138 159 2,500  Level Atlanta TRACON
08:48AM 33.6333 -84.3167 90° East 237 273 3,900 2,040 Climbing Atlanta TRACON
08:49AM 33.6333 -84.2333 90° East 256 295 6,600 2,160 Climbing Atlanta TRACON
08:50AM 33.7763 -83.9342 54° Northeast  Level FlightAware Approximate
08:51AM 33.8394 -83.8288 54° Northeast  Level FlightAware Approximate
08:51AM 33.6606 -84.0614 79° East 272 313 10,600  Level Atlanta Center
08:52AM 33.9078 -83.7285 48° Northeast  Level FlightAware Approximate
08:52AM 33.7275 -83.9789 46° Northeast 295 339 11,700  Level Atlanta Center
08:53AM 33.7919 -83.8939 48° Northeast 335 386 13,200 1,500 Climbing Atlanta Center
08:54AM 33.8628 -83.8061 46° Northeast 349 402 14,700 1,500 Climbing Atlanta Center
08:55AM 33.9317 -83.7133 48° Northeast 355 409 16,200 1,200 Climbing Atlanta Center
08:56AM 33.9939 -83.6153 53° Northeast 363 418 17,200 960 Climbing Atlanta Center
08:57AM 34.0603 -83.5122 52° Northeast 376 433 18,200 1,080 Climbing Atlanta Center
08:58AM 34.1244 -83.4114 52° Northeast 376 433 19,400 1,200 Climbing Atlanta Center
08:59AM 34.1886 -83.3081 53° Northeast 381 438 20,600 1,080 Climbing Atlanta Center
09:00AM 34.2528 -83.2019 54° Northeast 386 444 21,600 840 Climbing Atlanta Center
09:01AM 34.3167 -83.0956 54° Northeast 391 450 22,300 600 Climbing Atlanta Center
09:02AM 34.3867 -82.9842 53° Northeast 391 450 22,900 540 Climbing Atlanta Center
09:03AM 34.4506 -82.8875 51° Northeast 397 457 23,400 540 Climbing Atlanta Center
09:04AM 34.5181 -82.7706 55° Northeast 412 474 24,000 600 Climbing Atlanta Center
09:05AM 34.5881 -82.6586 53° Northeast 417 480 24,600 600 Climbing Atlanta Center
09:06AM 34.6658 -82.5361 52° Northeast 418 481 25,300 600 Climbing Atlanta Center
09:07AM 34.7353 -82.4236 53° Northeast 418 481 25,900 600 Climbing Atlanta Center
09:08AM 34.7986 -82.3136 55° Northeast 424 488 26,500 600 Climbing Atlanta Center
09:09AM 34.8719 -82.1958 53° Northeast 424 488 27,100 480 Climbing Atlanta Center
09:10AM 34.9453 -82.0775 53° Northeast 429 494 27,500 480 Climbing Atlanta Center
09:11AM 35.0183 -81.9567 54° Northeast 436 502 28,100 540 Climbing Atlanta Center
09:12AM 35.0872 -81.8331 56° Northeast 436 502 28,600 420 Climbing Atlanta Center
09:13AM 35.1536 -81.7067 57° Northeast 436 502 29,000 240 Climbing Atlanta Center
09:14AM 35.2219 -81.5725 58° Northeast 444 511 29,100 300 Climbing Atlanta Center
09:15AM 35.2925 -81.4458 56° Northeast 450 518 29,600 480 Climbing Atlanta Center
09:16AM 35.3583 -81.3139 59° Northeast 450 518 30,100 480 Climbing Atlanta Center
09:17AM 35.4283 -81.1842 56° Northeast 450 518 30,600 420 Climbing Atlanta Center
09:18AM 35.4981 -81.0364 60° Northeast 456 525 31,000 180 Climbing Atlanta Center
09:19AM 35.5597 -80.9167 58° Northeast 456 525 31,000  Level Atlanta Center
09:20AM 35.6292 -80.7836 57° Northeast 456 525 31,000  Level Atlanta Center
09:21AM 35.6986 -80.6531 57° Northeast 461 531 31,000  Level Atlanta Center
09:23AM 35.8433 -80.3786 57° Northeast 469 540 31,000  Level Washington Center
09:24AM 35.9111 -80.2467 58° Northeast 463 533 31,000  Level Washington Center
09:25AM 35.9767 -80.1169 58° Northeast 458 527 31,000  Level Washington Center
09:26AM 36.0419 -79.9897 58° Northeast 445 512 31,000  Level Washington Center
09:27AM 36.1111 -79.8625 56° Northeast 445 512 31,000  Level Washington Center
09:28AM 36.1803 -79.7403 55° Northeast 438 504 31,000  Level Washington Center
09:29AM 36.2511 -79.6178 54° Northeast 438 504 31,000 -180 Level Washington Center
09:30AM 36.3197 -79.4950 55° Northeast 438 504 30,700 -660 Descending Washington Center
09:31AM 36.3864 -79.3694 57° Northeast 438 504 29,700 -1,020 Descending Washington Center
09:32AM 36.4550 -79.2461 55° Northeast 433 498 28,700 -1,020 Descending Washington Center
09:33AM 36.5233 -79.1278 54° Northeast 433 498 27,700 -1,020 Descending Washington Center
09:34AM 36.5892 -79.0117 55° Northeast 428 493 26,700 -1,020 Descending Washington Center
09:35AM 36.6553 -78.8931 55° Northeast 423 487 25,700 -840 Descending Washington Center
09:36AM 36.7144 -78.7814 57° Northeast 418 481 25,000 -360 Descending Washington Center
09:37AM 36.7781 -78.6675 55° Northeast 413 475 25,000  Level Washington Center
09:38AM 36.8539 -78.5511 51° Northeast 407 468 25,000  Level Washington Center
09:39AM 36.9311 -78.4708 40° Northeast 389 448 25,000  Level Washington Center
09:40AM 37.0231 -78.3728 40° Northeast 389 448 25,000  Level Washington Center
09:41AM 37.1064 -78.2847 40° Northeast 389 448 25,000 -60 Level Washington Center
09:42AM 37.1833 -78.2014 41° Northeast 389 448 24,900 -600 Descending Washington Center
09:43AM 37.2644 -78.1181 39° Northeast 383 441 23,900 -1,020 Descending Washington Center
09:44AM 37.3456 -78.0267 42° Northeast 383 441 22,900 -1,020 Descending Washington Center
09:45AM 37.4244 -77.9375 42° Northeast 383 441 22,000 -480 Descending Washington Center
09:46AM 37.5053 -77.8536 39° Northeast 383 441 22,000  Level Washington Center
09:47AM 37.5964 -77.7856 31° Northeast 378 435 22,000 -1,020 Level Washington Center
09:48AM 37.6933 -77.7306 24° Northeast 378 435 20,000 -2,040 Descending Washington Center
09:49AM 37.7881 -77.6783 24° Northeast 367 422 18,000 -1,860 Descending Washington Center
09:50AM 37.8808 -77.6228 25° Northeast 362 417 16,400 -1,800 Descending Washington Center
09:51AM 37.9694 -77.5672 26° Northeast 357 411 14,400 -2,040 Descending Washington Center
09:52AM 38.0533 -77.5247 22° Northeast 345 397 12,400 -1,920 Descending Washington Center
09:53AM 38.1356 -77.4739 26° Northeast 332 382 10,600 -1,200 Descending Washington Center
09:54AM 38.2111 -77.4336 23° Northeast 309 356 10,000 -360 Descending Washington Center
09:55AM 38.2808 -77.3903 26° Northeast 284 327 10,000 -360 Level Washington Center
09:56AM 38.3522 -77.3550 21° North 277 319 9,300 -1,140 Descending Washington Center
09:57AM 38.4292 -77.3594 357° North 270 311 7,800 -1,500 Descending Washington Center
09:58AM 38.5042 -77.3611 359° North 270 311 6,300 -1,440 Descending Washington Center
09:59AM 38.5772 -77.3683 356° North 265 305 5,000 -1,140 Descending Washington Center
10:00AM 38.6333 -77.3667 North 256 295 4,600 -660 Descending Potomac TRACON
10:01AM 38.7000 -77.3667 360° North 251 289 4,000 -300 Descending Potomac TRACON
10:02AM 38.7667 -77.3500 11° North 252 290 4,000  Level Potomac TRACON
10:03AM 38.8500 -77.3500 360° North 260 299 4,000  Level Potomac TRACON
10:04AM 38.9167 -77.3500 360° North 233 268 4,000  Level Potomac TRACON
10:05AM 38.9667 -77.3500 360° North 201 231 4,000  Level Potomac TRACON
10:06AM 39.0167 -77.3500 360° North 195 224 4,000  Level Potomac TRACON
10:07AM 39.0833 -77.3500 360° North 205 236 4,000  Level Potomac TRACON
10:08AM 39.1333 -77.3500 360° North 202 232 4,000  Level Potomac TRACON
10:09AM 39.1833 -77.3333 14° North 198 228 4,000  Level Potomac TRACON
10:10AM 39.2167 -77.4000 303° West 214 246 4,000  Level Potomac TRACON
10:11AM 39.1833 -77.4500 229° Southwest 192 221 4,000 -300 Level Potomac TRACON
10:12AM 39.1333 -77.4667 194° South 178 205 3,500 -780 Descending Potomac TRACON
10:13AM 39.0833 -77.4500 165° South 179 206 2,400 -1,020 Descending Potomac TRACON